Ms Folla 2 — LLPD — position and weather

sailwx.info

Track history (hours):
 
Tides and Currents Weather Stations Pressure Air Temp Water Temp Dewpoint Dewpoint Depression Visibility Wind Speed Wind Dir Waves Ship Positions

Ms Folla 2

Last reported at 2017-Dec-16 14:30 UTC. Time now 2017-Dec-16 14:58 UTC.
Position N 68°42' E 015°25'.

Length 52 m; draft 5.5 m.

Type: Cargo ship. MMSI: 258253000.

Date/timePositionNaut miles runAvg speedWind from/ knotsBaromVisibWave heightAir tempDewpointWater temp
2017-Dec-16 14:30N 68°42' E 015°25'2 3.9
2017-Dec-16 13:59N 68°40' E 015°25'611.6
2017-Dec-16 13:30N 68°36' E 015°15'610.9
2017-Dec-16 12:59N 68°31' E 015°10'510.6
2017-Dec-16 12:29N 68°25' E 015°08'612.3
2017-Dec-16 12:00N 68°20' E 015°01'611.5
2017-Dec-16 11:30N 68°15' E 014°55'5 9.7
2017-Dec-16 11:00N 68°14' E 014°43'3 5.8
2017-Dec-16 10:30N 68°14' E 014°35'3 6.3
2017-Dec-16 10:00N 68°12' E 014°29'611.6
2017-Dec-16 09:30N 68°09' E 014°15'611.6
2017-Dec-16 09:00N 68°06' E 014°01'611.8
2017-Dec-16 08:30N 68°05' E 013°46'4 8.4
2017-Dec-16 08:00N 68°06' E 013°36'2 3.2
2017-Dec-16 07:30N 68°08' E 013°34'1 1.1
2017-Dec-16 07:00N 68°08' E 013°36'0 0.9
2017-Dec-16 06:30N 68°08' E 013°37'3 7.0
2017-Dec-16 06:01N 68°05' E 013°36'611.6
2017-Dec-16 05:30N 67°59' E 013°43'611.9
2017-Dec-16 05:00N 67°54' E 013°49'611.7
2017-Dec-16 04:30N 67°49' E 013°56'612.0
2017-Dec-16 04:00N 67°43' E 014°03'611.9
2017-Dec-16 03:30N 67°38' E 014°10'612.1
2017-Dec-16 03:00N 67°32' E 014°17'611.9
2017-Dec-16 02:30N 67°27' E 014°24'510.8
2017-Dec-16 02:00N 67°22' E 014°25'5 9.1
2017-Dec-16 01:31N 67°17' E 014°23'0 0.5
2017-Dec-16 01:00N 67°17' E 014°24'3 6.8
2017-Dec-16 00:30N 67°15' E 014°17'611.7
2017-Dec-16 00:00N 67°11' E 014°06'611.9
2017-Dec-15 23:30N 67°06' E 013°59'3 6.7
2017-Dec-15 23:00N 67°04' E 014°07'0 0.0
2017-Dec-15 22:30N 67°04' E 014°07'1 2.3
2017-Dec-15 22:01N 67°04' E 014°04'0 0.0
2017-Dec-15 21:30N 67°04' E 014°04'0 0.0
2017-Dec-15 21:00N 67°04' E 014°04'0 0.0
2017-Dec-15 20:30N 67°04' E 014°04'0 0.0
2017-Dec-15 20:01N 67°04' E 014°04'0 0.0
2017-Dec-15 19:30N 67°04' E 014°04'1 1.9
2017-Dec-15 19:00N 67°05' E 014°02'611.1
2017-Dec-15 18:30N 67°02' E 013°50'611.4
2017-Dec-15 18:00N 66°59' E 013°37'5 9.7
2017-Dec-15 17:30N 66°55' E 013°30'611.2
2017-Dec-15 17:00N 66°50' E 013°35'4 8.1
2017-Dec-15 16:30N 66°47' E 013°30'2 3.8
2017-Dec-15 16:00N 66°45' E 013°30'0 0.0
2017-Dec-15 15:29N 66°45' E 013°30'0 0.0
2017-Dec-15 15:00N 66°45' E 013°30'0 0.0
2017-Dec-15 14:31N 66°45' E 013°30'0 0.0
2017-Dec-15 13:59N 66°45' E 013°30'0 0.0
2017-Dec-15 13:30N 66°45' E 013°30'0 0.0
2017-Dec-15 13:00N 66°45' E 013°30'1 2.1
2017-Dec-15 12:30N 66°45' E 013°27'611.1
2017-Dec-15 12:00N 66°44' E 013°13'2 3.6
2017-Dec-15 11:30N 66°43' E 013°17'3 7.0
2017-Dec-15 11:00N 66°41' E 013°10'611.2
2017-Dec-15 10:30N 66°37' E 012°59'3 5.0
2017-Dec-15 10:00N 66°35' E 012°56'5 9.4
2017-Dec-15 09:30N 66°31' E 012°51'611.8
2017-Dec-15 09:00N 66°25' E 012°46'2 3.8
2017-Dec-15 08:30N 66°23' E 012°45'611.3
2017-Dec-15 08:00N 66°18' E 012°39'611.5
2017-Dec-15 07:30N 66°14' E 012°29'5 9.2
2017-Dec-15 07:00N 66°09' E 012°27'3 6.2
2017-Dec-15 06:30N 66°10' E 012°34'3 6.6
2017-Dec-15 06:00N 66°09' E 012°26'511.0
2017-Dec-15 05:30N 66°05' E 012°18'4 8.4
2017-Dec-15 05:01N 66°01' E 012°20'611.2
2017-Dec-15 04:30N 66°02' E 012°34'2 3.7
2017-Dec-15 04:01N 66°01' E 012°39'10 6.6
2017-Dec-15 02:30N 65°54' E 012°22'1711.5
2017-Dec-15 00:59N 65°37' E 012°14'611.7
2017-Dec-15 00:30N 65°31' E 012°12'42 7.1
2017-Dec-14 18:31N 64°55' E 011°21'4 7.5
2017-Dec-14 18:00N 64°51' E 011°17'0 0.0
2017-Dec-14 17:30N 64°51' E 011°17'0 0.0
2017-Dec-14 17:01N 64°51' E 011°17'0 0.0
2017-Dec-14 16:30N 64°51' E 011°17'1 1.8
2017-Dec-14 16:01N 64°52' E 011°15'4 4.3
2017-Dec-14 15:00N 64°49' E 011°08'510.3
2017-Dec-14 14:31N 64°43' E 011°07'611.4
2017-Dec-14 14:00N 64°38' E 011°10'511.2
2017-Dec-14 13:30N 64°34' E 011°20'5 9.8
2017-Dec-14 13:00N 64°30' E 011°26'3 6.1
2017-Dec-14 12:30N 64°28' E 011°30'0 0.0
2017-Dec-14 11:59N 64°28' E 011°30'0 0.0
2017-Dec-14 11:30N 64°28' E 011°30'0 0.0
2017-Dec-14 11:00N 64°28' E 011°30'0 0.0
2017-Dec-14 10:30N 64°28' E 011°30'0 0.0
2017-Dec-14 10:00N 64°28' E 011°30'0 0.0
2017-Dec-14 09:30N 64°28' E 011°30'0 0.0
2017-Dec-14 09:00N 64°28' E 011°30'0 0.0
2017-Dec-14 08:30N 64°28' E 011°30'0 0.0
2017-Dec-14 08:00N 64°28' E 011°30'0 0.0
2017-Dec-14 07:30N 64°28' E 011°30'2 3.7
2017-Dec-14 07:00N 64°27' E 011°26'510.9
2017-Dec-14 06:31N 64°30' E 011°15'510.6
2017-Dec-14 06:00N 64°34' E 011°06'511.0
2017-Dec-14 05:30N 64°37' E 010°57'3 5.4
2017-Dec-14 05:00N 64°36' E 010°51'0 0.0
2017-Dec-14 04:30N 64°36' E 010°51'2 3.8
2017-Dec-14 04:00N 64°34' E 010°53'2 3.9
2017-Dec-14 03:30N 64°32' E 010°52'0 0.0
2017-Dec-14 03:00N 64°32' E 010°52'0 0.0
2017-Dec-14 02:29N 64°32' E 010°52'0 0.0
2017-Dec-14 02:00N 64°32' E 010°52'2 3.1
2017-Dec-14 01:30N 64°33' E 010°49'5 9.3
2017-Dec-14 01:00N 64°38' E 010°49'611.7
2017-Dec-14 00:30N 64°43' E 010°57'611.8
2017-Dec-14 00:00N 64°47' E 011°05'611.8
2017-Dec-13 23:31N 64°51' E 011°15'1 1.6
2017-Dec-13 23:01N 64°51' E 011°17'0 0.0
2017-Dec-13 22:30N 64°51' E 011°17'0 0.0
2017-Dec-13 22:00N 64°51' E 011°17'2 4.5
2017-Dec-13 21:30N 64°53' E 011°19'611.4
2017-Dec-13 21:01N 64°57' E 011°30'611.4
2017-Dec-13 20:30N 65°01' E 011°40'611.9
2017-Dec-13 20:00N 65°06' E 011°48'611.8
2017-Dec-13 19:30N 65°11' E 011°52'611.7
2017-Dec-13 18:59N 65°17' E 011°58'611.8
2017-Dec-13 18:30N 65°22' E 012°04'611.5
2017-Dec-13 18:00N 65°27' E 012°10'5 9.3
2017-Dec-13 17:30N 65°32' E 012°12'611.7
2017-Dec-13 17:00N 65°37' E 012°15'611.7
2017-Dec-13 16:30N 65°43' E 012°17'611.8
2017-Dec-13 16:01N 65°49' E 012°21'611.8
2017-Dec-13 15:30N 65°55' E 012°23'611.7
2017-Dec-13 15:00N 65°60' E 012°30'611.8
2017-Dec-13 14:30N 66°04' E 012°40'611.9
2017-Dec-13 14:00N 66°09' E 012°49'611.9
2017-Dec-13 13:30N 66°15' E 012°54'611.4
2017-Dec-13 13:00N 66°20' E 012°57'611.3
2017-Dec-13 12:30N 66°26' E 012°59'611.4
2017-Dec-13 12:00N 66°31' E 012°58'510.4
2017-Dec-13 11:30N 66°36' E 013°04'611.5
2017-Dec-13 11:00N 66°41' E 013°08'611.8
2017-Dec-13 10:30N 66°47' E 013°14'611.2
2017-Dec-13 10:00N 66°52' E 013°21'510.7
2017-Dec-13 09:30N 66°56' E 013°29'510.8
2017-Dec-13 09:00N 66°60' E 013°39'611.7
2017-Dec-13 08:30N 67°03' E 013°51'611.3
2017-Dec-13 08:00N 67°07' E 014°01'510.9
2017-Dec-13 07:30N 67°12' E 014°08'611.4
2017-Dec-13 07:00N 67°16' E 014°19'2 4.5
2017-Dec-13 06:30N 67°17' E 014°23'4 8.2
2017-Dec-13 06:01N 67°21' E 014°27'611.5
2017-Dec-13 05:31N 67°26' E 014°34'611.7
2017-Dec-13 05:00N 67°31' E 014°42'612.0
2017-Dec-13 04:29N 67°35' E 014°54'611.7
2017-Dec-13 04:00N 67°38' E 015°07'611.6
2017-Dec-13 03:31N 67°43' E 015°15'8 2.1
2017-Dec-12 23:33N 67°46' E 015°35'1 3.4
2017-Dec-12 23:22N 67°46' E 015°34'411.1
2017-Dec-12 22:59N 67°46' E 015°23'511.3
2017-Dec-12 22:30N 67°42' E 015°11'611.3
2017-Dec-12 22:00N 67°40' E 014°58'510.6
2017-Dec-12 21:30N 67°39' E 014°44'510.0
2017-Dec-12 21:00N 67°42' E 014°35'5 9.9
2017-Dec-12 20:30N 67°47' E 014°32'511.0
2017-Dec-12 20:00N 67°51' E 014°41'611.5
2017-Dec-12 19:30N 67°54' E 014°55'511.0
2017-Dec-12 19:00N 67°54' E 015°09'611.2
2017-Dec-12 18:29N 67°56' E 015°24'2 5.1
2017-Dec-12 18:00N 67°56' E 015°30'0 0.0
2017-Dec-12 17:30N 67°56' E 015°30'0 0.0
2017-Dec-12 17:00N 67°56' E 015°30'3 5.2
2017-Dec-12 16:30N 67°58' E 015°36'5 9.4
2017-Dec-12 16:00N 67°58' E 015°48'0 0.0
2017-Dec-12 15:30N 67°58' E 015°48'1 1.1
2017-Dec-12 14:59N 67°58' E 015°47'510.9
2017-Dec-12 14:30N 67°58' E 015°33'5 9.5
2017-Dec-12 14:00N 67°58' E 015°21'510.8
2017-Dec-12 13:30N 68°04' E 015°16'510.6
2017-Dec-12 12:59N 68°08' E 015°22'611.2
2017-Dec-12 12:30N 68°12' E 015°33'611.0
2017-Dec-12 12:00N 68°16' E 015°45'511.0
2017-Dec-12 11:30N 68°19' E 015°56'611.1
2017-Dec-12 11:00N 68°22' E 016°08'611.3
2017-Dec-12 10:30N 68°24' E 016°23'611.2
2017-Dec-12 10:00N 68°26' E 016°38'611.2
2017-Dec-12 09:30N 68°26' E 016°53'611.3
2017-Dec-12 09:00N 68°26' E 017°08'611.1
2017-Dec-12 08:30N 68°26' E 017°23'1 2.2
2017-Dec-12 08:00N 68°25' E 017°26'4 8.1
2017-Dec-12 07:30N 68°26' E 017°15'510.9
2017-Dec-12 07:00N 68°24' E 017°01'4 7.6
2017-Dec-12 06:30N 68°21' E 016°54'3 6.6
2017-Dec-12 06:00N 68°24' E 016°54'510.9
2017-Dec-12 05:30N 68°26' E 016°40'611.0
2017-Dec-12 05:00N 68°25' E 016°25'611.1
2017-Dec-12 04:30N 68°23' E 016°10'4 7.7
2017-Dec-12 04:01N 68°26' E 016°04'510.6
2017-Dec-12 03:30N 68°31' E 016°10'510.4
2017-Dec-12 03:00N 68°34' E 016°23'4 8.5
2017-Dec-12 02:30N 68°35' E 016°34'2 4.0
2017-Dec-12 02:00N 68°37' E 016°34'610.9
2017-Dec-12 01:30N 68°42' E 016°41'510.5
2017-Dec-12 01:00N 68°47' E 016°43'510.8
2017-Dec-12 00:30N 68°53' E 016°45'4 7.3
2017-Dec-12 00:00N 68°56' E 016°43'0 0.0
2017-Dec-11 23:30N 68°56' E 016°43'4 9.0
2017-Dec-11 23:00N 68°58' E 016°54'510.5
2017-Dec-11 22:30N 68°59' E 017°08'510.0
2017-Dec-11 22:00N 69°02' E 017°19'510.4
2017-Dec-11 21:30N 69°06' E 017°29'510.8
2017-Dec-11 21:00N 69°08' E 017°43'510.8
2017-Dec-11 20:30N 69°10' E 017°57'4 8.6
2017-Dec-11 20:00N 69°15' E 017°58'510.1
2017-Dec-11 19:30N 69°20' E 018°01'5 9.7
2017-Dec-11 19:00N 69°24' E 018°07'510.1
2017-Dec-11 18:29N 69°29' E 018°10'510.7
2017-Dec-11 18:00N 69°31' E 018°24'510.3
2017-Dec-11 17:29N 69°33' E 018°38'4 8.7
2017-Dec-11 17:00N 69°34' E 018°49'510.2
2017-Dec-11 16:30N 69°29' E 018°56'510.7
2017-Dec-11 16:00N 69°25' E 019°02'510.0
2017-Dec-11 15:30N 69°21' E 019°13'5 9.7
2017-Dec-11 15:00N 69°18' E 019°22'4 7.1
2017-Dec-11 14:30N 69°14' E 019°22'0 0.1
2017-Dec-11 14:00N 69°14' E 019°22'0 0.0
2017-Dec-11 13:29N 69°14' E 019°22'0 0.0
2017-Dec-11 13:00N 69°14' E 019°22'0 0.0
2017-Dec-11 12:30N 69°14' E 019°22'0 0.0
2017-Dec-11 12:00N 69°14' E 019°22'0 0.0
2017-Dec-11 11:29N 69°14' E 019°22'0 0.0
2017-Dec-11 11:00N 69°14' E 019°22'3 7.0
2017-Dec-11 10:30N 69°18' E 019°22'5 9.8
2017-Dec-11 10:00N 69°21' E 019°13'510.6
2017-Dec-11 09:30N 69°25' E 019°01'510.8
2017-Dec-11 09:00N 69°30' E 018°56'611.2
2017-Dec-11 08:30N 69°36' E 018°55'611.3
2017-Dec-11 08:00N 69°41' E 019°01'611.0
2017-Dec-11 07:29N 69°46' E 019°10'511.2
2017-Dec-11 07:01N 69°48' E 019°23'611.3
2017-Dec-11 06:30N 69°50' E 019°39'610.9
2017-Dec-11 06:00N 69°53' E 019°52'511.1
2017-Dec-11 05:31N 69°56' E 020°05'510.8
2017-Dec-11 05:00N 69°60' E 020°18'611.1
2017-Dec-11 04:30N 70°01' E 020°34'510.8
2017-Dec-11 04:00N 70°03' E 020°49'610.7
2017-Dec-11 03:29N 70°07' E 020°59'511.3
2017-Dec-11 03:00N 70°12' E 021°06'510.8
2017-Dec-11 02:30N 70°16' E 021°17'611.2
2017-Dec-11 02:00N 70°20' E 021°29'611.3
2017-Dec-11 01:30N 70°24' E 021°41'611.1
2017-Dec-11 01:00N 70°22' E 021°57'611.2
2017-Dec-11 00:30N 70°19' E 022°11'510.5
2017-Dec-11 00:00N 70°15' E 022°20'0 0.9
2017-Dec-10 23:30N 70°14' E 022°21'0 0.0
2017-Dec-10 23:00N 70°14' E 022°21'0 0.0
2017-Dec-10 22:30N 70°14' E 022°21'0 0.0
2017-Dec-10 22:00N 70°14' E 022°21'0 0.0
2017-Dec-10 21:29N 70°14' E 022°21'2 4.5
2017-Dec-10 21:00N 70°16' E 022°19'611.1
2017-Dec-10 20:30N 70°20' E 022°06'611.6
2017-Dec-10 20:00N 70°22' E 021°50'5 9.3
2017-Dec-10 19:30N 70°22' E 021°36'612.2
2017-Dec-10 19:00N 70°18' E 021°24'611.9
2017-Dec-10 18:30N 70°14' E 021°10'612.2
2017-Dec-10 18:00N 70°08' E 021°06'612.0
2017-Dec-10 17:30N 70°02' E 021°01'2 4.2
2017-Dec-10 17:00N 70°04' E 020°57'612.4
2017-Dec-10 16:30N 70°02' E 020°39'611.7
2017-Dec-10 16:00N 69°60' E 020°23'611.7
2017-Dec-10 15:30N 69°57' E 020°08'612.0
2017-Dec-10 15:00N 69°54' E 019°54'611.8
2017-Dec-10 14:30N 69°50' E 019°39'611.8
2017-Dec-10 14:00N 69°48' E 019°24'612.0
2017-Dec-10 13:30N 69°45' E 019°08'611.6
2017-Dec-10 13:00N 69°40' E 018°59'0 0.3
2017-Dec-10 12:30N 69°41' E 018°59'1 2.2
2017-Dec-10 12:00N 69°40' E 018°58'0 0.7
2017-Dec-10 11:30N 69°39' E 018°59'611.8
2017-Dec-10 11:00N 69°34' E 018°49'510.5
2017-Dec-10 10:30N 69°32' E 018°35'611.1
2017-Dec-10 10:00N 69°30' E 018°20'510.8
2017-Dec-10 09:30N 69°27' E 018°07'611.5
2017-Dec-10 09:00N 69°22' E 018°06'510.9
2017-Dec-10 08:31N 69°17' E 017°58'3 6.1
2017-Dec-10 08:00N 69°14' E 017°58'3 6.2
2017-Dec-10 07:30N 69°11' E 018°01'611.2
2017-Dec-10 07:00N 69°08' E 017°47'611.6
2017-Dec-10 06:30N 69°06' E 017°32'611.0
2017-Dec-10 06:00N 69°03' E 017°20'611.3
2017-Dec-10 05:30N 68°58' E 017°11'611.4
2017-Dec-10 05:00N 68°54' E 016°59'611.6
2017-Dec-10 04:30N 68°51' E 016°47'510.9
2017-Dec-10 04:00N 68°47' E 016°36'1 2.6
2017-Dec-10 03:30N 68°48' E 016°33'1 2.5
2017-Dec-10 03:00N 68°49' E 016°34'4 9.0
2017-Dec-10 02:30N 68°52' E 016°28'611.4
2017-Dec-10 02:00N 68°56' E 016°15'611.2
2017-Dec-10 01:30N 68°58' E 016°01'510.7
2017-Dec-10 01:00N 68°59' E 015°46'510.0
2017-Dec-10 00:30N 68°56' E 015°35'611.4
2017-Dec-10 00:00N 68°50' E 015°28'611.5
2017-Dec-09 23:29N 68°45' E 015°26'3 5.6
2017-Dec-09 23:00N 68°42' E 015°25'3 5.4
2017-Dec-09 22:30N 68°39' E 015°23'611.5
2017-Dec-09 22:00N 68°35' E 015°13'510.7
2017-Dec-09 21:30N 68°30' E 015°11'510.1
2017-Dec-09 21:00N 68°25' E 015°08'510.7
2017-Dec-09 20:30N 68°20' E 015°01'510.7
2017-Dec-09 20:00N 68°15' E 014°56'4 8.4
2017-Dec-09 19:30N 68°14' E 014°45'4 8.1
2017-Dec-09 19:00N 68°14' E 014°34'0 0.9
2017-Dec-09 18:30N 68°14' E 014°34'5 9.9
2017-Dec-09 18:00N 68°11' E 014°23'510.5
2017-Dec-09 17:30N 68°08' E 014°11'510.5
2017-Dec-09 17:00N 68°06' E 013°58'510.3
2017-Dec-09 16:30N 68°04' E 013°45'4 7.7
2017-Dec-09 15:59N 68°06' E 013°36'2 3.3
2017-Dec-09 15:30N 68°08' E 013°34'1 1.9
2017-Dec-09 15:00N 68°08' E 013°37'0 0.9
2017-Dec-09 14:29N 68°08' E 013°36'511.1
2017-Dec-09 14:00N 68°02' E 013°39'511.3
2017-Dec-09 13:30N 67°57' E 013°45'611.4
2017-Dec-09 13:00N 67°52' E 013°52'611.2
2017-Dec-09 12:30N 67°47' E 013°59'511.2
2017-Dec-09 12:00N 67°42' E 014°05'611.1
2017-Dec-09 11:30N 67°37' E 014°12'611.3
2017-Dec-09 11:00N 67°32' E 014°18'611.5
2017-Dec-09 10:30N 67°27' E 014°25'510.6
2017-Dec-09 10:00N 67°22' E 014°24'4 8.7
2017-Dec-09 09:30N 67°17' E 014°23'0 0.5
2017-Dec-09 09:00N 67°17' E 014°23'1 2.3
2017-Dec-09 08:30N 67°16' E 014°21'2 3.6
2017-Dec-09 08:00N 67°15' E 014°17'510.9
2017-Dec-09 07:30N 67°12' E 014°07'611.3
2017-Dec-09 07:00N 67°06' E 014°01'2 4.6
2017-Dec-09 06:30N 67°04' E 014°04'0 0.0
2017-Dec-09 06:00N 67°04' E 014°04'0 0.0
2017-Dec-09 05:30N 67°04' E 014°04'4 8.1
2017-Dec-09 05:01N 67°03' E 013°55'611.4
2017-Dec-09 04:30N 66°59' E 013°43'611.1
2017-Dec-09 04:00N 66°57' E 013°29'611.2
2017-Dec-09 03:30N 66°52' E 013°33'5 9.6
2017-Dec-09 03:00N 66°47' E 013°29'3 5.3
2017-Dec-09 02:30N 66°45' E 013°30'0 0.0
2017-Dec-09 02:00N 66°45' E 013°30'0 0.0
2017-Dec-09 01:30N 66°45' E 013°30'0 1.0
2017-Dec-09 01:00N 66°45' E 013°29'611.2
2017-Dec-09 00:30N 66°44' E 013°15'511.1
2017-Dec-09 00:00N 66°39' E 013°07'611.2
2017-Dec-08 23:30N 66°34' E 013°05'5 9.9
2017-Dec-08 23:00N 66°30' E 012°59'611.6
2017-Dec-08 22:30N 66°24' E 012°59'611.3
2017-Dec-08 22:00N 66°18' E 012°57'611.8
2017-Dec-08 21:30N 66°12' E 012°52'510.9
2017-Dec-08 21:00N 66°08' E 012°46'611.4
2017-Dec-08 20:30N 66°03' E 012°38'1 3.0
2017-Dec-08 20:00N 66°02' E 012°36'611.0
2017-Dec-08 19:30N 66°01' E 012°22'1 1.2
2017-Dec-08 19:00N 66°01' E 012°21'4 7.4
2017-Dec-08 18:30N 65°58' E 012°26'611.7
2017-Dec-08 18:00N 65°52' E 012°22'611.6
2017-Dec-08 17:30N 65°47' E 012°19'611.5
2017-Dec-08 17:00N 65°41' E 012°16'611.6
2017-Dec-08 16:30N 65°35' E 012°14'611.4
2017-Dec-08 16:00N 65°30' E 012°12'5 9.5
2017-Dec-08 15:30N 65°25' E 012°09'611.5
2017-Dec-08 15:00N 65°20' E 012°02'611.7
2017-Dec-08 14:30N 65°15' E 011°56'611.7
2017-Dec-08 14:00N 65°09' E 011°50'611.4
2017-Dec-08 13:30N 65°04' E 011°46'611.5
2017-Dec-08 13:00N 64°60' E 011°37'611.3
2017-Dec-08 12:31N 64°56' E 011°27'612.0
2017-Dec-08 12:01N 64°52' E 011°17'1 1.0
2017-Dec-08 11:30N 64°52' E 011°17'0 0.0
2017-Dec-08 11:00N 64°52' E 011°17'0 0.0
2017-Dec-08 10:31N 64°52' E 011°17'0 0.0
2017-Dec-08 10:00N 64°52' E 011°17'0 0.0
2017-Dec-08 09:30N 64°52' E 011°17'0 0.0
2017-Dec-08 09:00N 64°52' E 011°17'0 0.0
2017-Dec-08 08:30N 64°52' E 011°17'0 0.0
2017-Dec-08 08:00N 64°52' E 011°17'0 0.0
2017-Dec-08 07:30N 64°52' E 011°17'0 0.0
2017-Dec-08 07:00N 64°52' E 011°17'0 0.0
2017-Dec-08 06:30N 64°52' E 011°17'0 0.0
2017-Dec-08 06:01N 64°52' E 011°17'0 0.0
2017-Dec-08 05:31N 64°52' E 011°17'0 0.0
2017-Dec-08 05:00N 64°52' E 011°17'1 2.0
2017-Dec-08 04:30N 64°51' E 011°15'4 8.8
2017-Dec-08 04:00N 64°48' E 011°07'4 8.3
2017-Dec-08 03:30N 64°44' E 011°07'5 9.1
2017-Dec-08 03:00N 64°40' E 011°08'4 8.6
2017-Dec-08 02:30N 64°37' E 011°15'5 9.2
2017-Dec-08 02:00N 64°33' E 011°22'4 7.4
2017-Dec-08 01:30N 64°30' E 011°26'3 6.2
2017-Dec-08 01:00N 64°27' E 011°29'0 1.0
2017-Dec-08 00:30N 64°28' E 011°30'0 0.0
2017-Dec-08 00:00N 64°28' E 011°30'0 0.0
2017-Dec-07 23:30N 64°28' E 011°30'0 0.0
2017-Dec-07 23:00N 64°28' E 011°30'0 0.0
2017-Dec-07 22:30N 64°28' E 011°30'0 0.0
2017-Dec-07 21:59N 64°28' E 011°30'0 0.0
2017-Dec-07 21:30N 64°28' E 011°30'0 0.0
2017-Dec-07 21:00N 64°28' E 011°30'0 0.0
2017-Dec-07 20:30N 64°28' E 011°30'0 0.0
2017-Dec-07 20:00N 64°28' E 011°30'0 0.9
2017-Dec-07 19:30N 64°28' E 011°30'2 3.3
2017-Dec-07 19:00N 64°27' E 011°26'510.3
2017-Dec-07 18:30N 64°32' E 011°25'510.4
2017-Dec-07 18:00N 64°36' E 011°17'5 9.9
2017-Dec-07 17:30N 64°39' E 011°08'611.0
2017-Dec-07 17:00N 64°45' E 011°06'510.0
2017-Dec-07 16:30N 64°50' E 011°10'3 5.8
2017-Dec-07 16:01N 64°52' E 011°15'0 0.0
2017-Dec-07 15:30N 64°52' E 011°15'0 0.0
2017-Dec-07 15:00N 64°52' E 011°15'0 0.9
2017-Dec-07 14:31N 64°52' E 011°16'1 1.2
2017-Dec-07 14:00N 64°52' E 011°17'0 0.0
2017-Dec-07 13:31N 64°52' E 011°17'0 0.0
2017-Dec-07 13:00N 64°52' E 011°17'0 0.0
2017-Dec-07 12:31N 64°52' E 011°17'0 0.0
2017-Dec-07 12:00N 64°52' E 011°17'0 0.0
2017-Dec-07 11:30N 64°52' E 011°17'0 0.0
2017-Dec-07 11:00N 64°52' E 011°17'2 4.9
2017-Dec-07 10:30N 64°54' E 011°20'611.0
2017-Dec-07 10:00N 64°57' E 011°30'510.9
2017-Dec-07 09:31N 65°01' E 011°40'510.8
2017-Dec-07 09:00N 65°05' E 011°47'510.4
2017-Dec-07 08:30N 65°10' E 011°51'611.0
2017-Dec-07 08:00N 65°15' E 011°55'511.2
2017-Dec-07 07:30N 65°20' E 012°02'611.4
2017-Dec-07 07:00N 65°25' E 012°09'5 9.6
2017-Dec-07 06:30N 65°30' E 012°12'511.0
2017-Dec-07 06:00N 65°35' E 012°13'611.0
2017-Dec-07 05:30N 65°41' E 012°15'611.5
2017-Dec-07 05:00N 65°46' E 012°19'611.3
2017-Dec-07 04:30N 65°52' E 012°22'610.9
2017-Dec-07 04:00N 65°57' E 012°26'611.6
2017-Dec-07 03:30N 66°02' E 012°34'611.4
2017-Dec-07 03:00N 66°06' E 012°43'611.2
2017-Dec-07 02:29N 66°11' E 012°51'611.3
2017-Dec-07 02:00N 66°16' E 012°55'611.2
2017-Dec-07 01:30N 66°22' E 012°57'511.1
2017-Dec-07 01:00N 66°27' E 012°59'510.7
2017-Dec-07 00:30N 66°32' E 012°59'510.1
2017-Dec-07 00:00N 66°37' E 013°04'611.4
2017-Dec-06 23:30N 66°42' E 013°10'611.3
2017-Dec-06 23:00N 66°48' E 013°15'510.7
2017-Dec-06 22:30N 66°52' E 013°21'510.3
2017-Dec-06 22:00N 66°57' E 013°29'510.4
2017-Dec-06 21:30N 66°60' E 013°39'611.7
2017-Dec-06 21:00N 67°03' E 013°51'  
Track history (hours):
 
Tides and Currents Weather Stations Pressure Air Temp Water Temp Dewpoint Dewpoint Depression Visibility Wind Speed Wind Dir Waves Ship Positions

Ms Folla 2

Last reported at 2017-Dec-16 14:30 UTC. Time now 2017-Dec-16 14:58 UTC.
Position N 68°42' E 015°25'.

Length 52 m; draft 5.5 m.

Type: Cargo ship. MMSI: 258253000.

Date/timePositionNaut miles runAvg speedWind from/ knotsBaromVisibWave heightAir tempDewpointWater temp
2017-Dec-16 14:30N 68°42' E 015°25'2 3.9
2017-Dec-16 13:59N 68°40' E 015°25'611.6
2017-Dec-16 13:30N 68°36' E 015°15'610.9
2017-Dec-16 12:59N 68°31' E 015°10'510.6
2017-Dec-16 12:29N 68°25' E 015°08'612.3
2017-Dec-16 12:00N 68°20' E 015°01'611.5
2017-Dec-16 11:30N 68°15' E 014°55'5 9.7
2017-Dec-16 11:00N 68°14' E 014°43'3 5.8
2017-Dec-16 10:30N 68°14' E 014°35'3 6.3
2017-Dec-16 10:00N 68°12' E 014°29'611.6
2017-Dec-16 09:30N 68°09' E 014°15'611.6
2017-Dec-16 09:00N 68°06' E 014°01'611.8
2017-Dec-16 08:30N 68°05' E 013°46'4 8.4
2017-Dec-16 08:00N 68°06' E 013°36'2 3.2
2017-Dec-16 07:30N 68°08' E 013°34'1 1.1
2017-Dec-16 07:00N 68°08' E 013°36'0 0.9
2017-Dec-16 06:30N 68°08' E 013°37'3 7.0
2017-Dec-16 06:01N 68°05' E 013°36'611.6
2017-Dec-16 05:30N 67°59' E 013°43'611.9
2017-Dec-16 05:00N 67°54' E 013°49'611.7
2017-Dec-16 04:30N 67°49' E 013°56'612.0
2017-Dec-16 04:00N 67°43' E 014°03'611.9
2017-Dec-16 03:30N 67°38' E 014°10'612.1
2017-Dec-16 03:00N 67°32' E 014°17'611.9
2017-Dec-16 02:30N 67°27' E 014°24'510.8
2017-Dec-16 02:00N 67°22' E 014°25'5 9.1
2017-Dec-16 01:31N 67°17' E 014°23'0 0.5
2017-Dec-16 01:00N 67°17' E 014°24'3 6.8
2017-Dec-16 00:30N 67°15' E 014°17'611.7
2017-Dec-16 00:00N 67°11' E 014°06'611.9
2017-Dec-15 23:30N 67°06' E 013°59'3 6.7
2017-Dec-15 23:00N 67°04' E 014°07'0 0.0
2017-Dec-15 22:30N 67°04' E 014°07'1 2.3
2017-Dec-15 22:01N 67°04' E 014°04'0 0.0
2017-Dec-15 21:30N 67°04' E 014°04'0 0.0
2017-Dec-15 21:00N 67°04' E 014°04'0 0.0
2017-Dec-15 20:30N 67°04' E 014°04'0 0.0
2017-Dec-15 20:01N 67°04' E 014°04'0 0.0
2017-Dec-15 19:30N 67°04' E 014°04'1 1.9
2017-Dec-15 19:00N 67°05' E 014°02'611.1
2017-Dec-15 18:30N 67°02' E 013°50'611.4
2017-Dec-15 18:00N 66°59' E 013°37'5 9.7
2017-Dec-15 17:30N 66°55' E 013°30'611.2
2017-Dec-15 17:00N 66°50' E 013°35'4 8.1
2017-Dec-15 16:30N 66°47' E 013°30'2 3.8
2017-Dec-15 16:00N 66°45' E 013°30'0 0.0
2017-Dec-15 15:29N 66°45' E 013°30'0 0.0
2017-Dec-15 15:00N 66°45' E 013°30'0 0.0
2017-Dec-15 14:31N 66°45' E 013°30'0 0.0
2017-Dec-15 13:59N 66°45' E 013°30'0 0.0
2017-Dec-15 13:30N 66°45' E 013°30'0 0.0
2017-Dec-15 13:00N 66°45' E 013°30'1 2.1
2017-Dec-15 12:30N 66°45' E 013°27'611.1
2017-Dec-15 12:00N 66°44' E 013°13'2 3.6
2017-Dec-15 11:30N 66°43' E 013°17'3 7.0
2017-Dec-15 11:00N 66°41' E 013°10'611.2
2017-Dec-15 10:30N 66°37' E 012°59'3 5.0
2017-Dec-15 10:00N 66°35' E 012°56'5 9.4
2017-Dec-15 09:30N 66°31' E 012°51'611.8
2017-Dec-15 09:00N 66°25' E 012°46'2 3.8
2017-Dec-15 08:30N 66°23' E 012°45'611.3
2017-Dec-15 08:00N 66°18' E 012°39'611.5
2017-Dec-15 07:30N 66°14' E 012°29'5 9.2
2017-Dec-15 07:00N 66°09' E 012°27'3 6.2
2017-Dec-15 06:30N 66°10' E 012°34'3 6.6
2017-Dec-15 06:00N 66°09' E 012°26'511.0
2017-Dec-15 05:30N 66°05' E 012°18'4 8.4
2017-Dec-15 05:01N 66°01' E 012°20'611.2
2017-Dec-15 04:30N 66°02' E 012°34'2 3.7
2017-Dec-15 04:01N 66°01' E 012°39'10 6.6
2017-Dec-15 02:30N 65°54' E 012°22'1711.5
2017-Dec-15 00:59N 65°37' E 012°14'611.7
2017-Dec-15 00:30N 65°31' E 012°12'42 7.1
2017-Dec-14 18:31N 64°55' E 011°21'4 7.5
2017-Dec-14 18:00N 64°51' E 011°17'0 0.0
2017-Dec-14 17:30N 64°51' E 011°17'0 0.0
2017-Dec-14 17:01N 64°51' E 011°17'0 0.0
2017-Dec-14 16:30N 64°51' E 011°17'1 1.8
2017-Dec-14 16:01N 64°52' E 011°15'4 4.3
2017-Dec-14 15:00N 64°49' E 011°08'510.3
2017-Dec-14 14:31N 64°43' E 011°07'611.4
2017-Dec-14 14:00N 64°38' E 011°10'511.2
2017-Dec-14 13:30N 64°34' E 011°20'5 9.8
2017-Dec-14 13:00N 64°30' E 011°26'3 6.1
2017-Dec-14 12:30N 64°28' E 011°30'0 0.0
2017-Dec-14 11:59N 64°28' E 011°30'0 0.0
2017-Dec-14 11:30N 64°28' E 011°30'0 0.0
2017-Dec-14 11:00N 64°28' E 011°30'0 0.0
2017-Dec-14 10:30N 64°28' E 011°30'0 0.0
2017-Dec-14 10:00N 64°28' E 011°30'0 0.0
2017-Dec-14 09:30N 64°28' E 011°30'0 0.0
2017-Dec-14 09:00N 64°28' E 011°30'0 0.0
2017-Dec-14 08:30N 64°28' E 011°30'0 0.0
2017-Dec-14 08:00N 64°28' E 011°30'0 0.0
2017-Dec-14 07:30N 64°28' E 011°30'2 3.7
2017-Dec-14 07:00N 64°27' E 011°26'510.9
2017-Dec-14 06:31N 64°30' E 011°15'510.6
2017-Dec-14 06:00N 64°34' E 011°06'511.0
2017-Dec-14 05:30N 64°37' E 010°57'3 5.4
2017-Dec-14 05:00N 64°36' E 010°51'0 0.0
2017-Dec-14 04:30N 64°36' E 010°51'2 3.8
2017-Dec-14 04:00N 64°34' E 010°53'2 3.9
2017-Dec-14 03:30N 64°32' E 010°52'0 0.0
2017-Dec-14 03:00N 64°32' E 010°52'0 0.0
2017-Dec-14 02:29N 64°32' E 010°52'0 0.0
2017-Dec-14 02:00N 64°32' E 010°52'2 3.1
2017-Dec-14 01:30N 64°33' E 010°49'5 9.3
2017-Dec-14 01:00N 64°38' E 010°49'611.7
2017-Dec-14 00:30N 64°43' E 010°57'611.8
2017-Dec-14 00:00N 64°47' E 011°05'611.8
2017-Dec-13 23:31N 64°51' E 011°15'1 1.6
2017-Dec-13 23:01N 64°51' E 011°17'0 0.0
2017-Dec-13 22:30N 64°51' E 011°17'0 0.0
2017-Dec-13 22:00N 64°51' E 011°17'2 4.5
2017-Dec-13 21:30N 64°53' E 011°19'611.4
2017-Dec-13 21:01N 64°57' E 011°30'611.4
2017-Dec-13 20:30N 65°01' E 011°40'611.9
2017-Dec-13 20:00N 65°06' E 011°48'611.8
2017-Dec-13 19:30N 65°11' E 011°52'611.7
2017-Dec-13 18:59N 65°17' E 011°58'611.8
2017-Dec-13 18:30N 65°22' E 012°04'611.5
2017-Dec-13 18:00N 65°27' E 012°10'5 9.3
2017-Dec-13 17:30N 65°32' E 012°12'611.7
2017-Dec-13 17:00N 65°37' E 012°15'611.7
2017-Dec-13 16:30N 65°43' E 012°17'611.8
2017-Dec-13 16:01N 65°49' E 012°21'611.8
2017-Dec-13 15:30N 65°55' E 012°23'611.7
2017-Dec-13 15:00N 65°60' E 012°30'611.8
2017-Dec-13 14:30N 66°04' E 012°40'611.9
2017-Dec-13 14:00N 66°09' E 012°49'611.9
2017-Dec-13 13:30N 66°15' E 012°54'611.4
2017-Dec-13 13:00N 66°20' E 012°57'611.3
2017-Dec-13 12:30N 66°26' E 012°59'611.4
2017-Dec-13 12:00N 66°31' E 012°58'510.4
2017-Dec-13 11:30N 66°36' E 013°04'611.5
2017-Dec-13 11:00N 66°41' E 013°08'611.8
2017-Dec-13 10:30N 66°47' E 013°14'611.2
2017-Dec-13 10:00N 66°52' E 013°21'510.7
2017-Dec-13 09:30N 66°56' E 013°29'510.8
2017-Dec-13 09:00N 66°60' E 013°39'611.7
2017-Dec-13 08:30N 67°03' E 013°51'611.3
2017-Dec-13 08:00N 67°07' E 014°01'510.9
2017-Dec-13 07:30N 67°12' E 014°08'611.4
2017-Dec-13 07:00N 67°16' E 014°19'2 4.5
2017-Dec-13 06:30N 67°17' E 014°23'4 8.2
2017-Dec-13 06:01N 67°21' E 014°27'611.5
2017-Dec-13 05:31N 67°26' E 014°34'611.7
2017-Dec-13 05:00N 67°31' E 014°42'612.0
2017-Dec-13 04:29N 67°35' E 014°54'611.7
2017-Dec-13 04:00N 67°38' E 015°07'611.6
2017-Dec-13 03:31N 67°43' E 015°15'8 2.1
2017-Dec-12 23:33N 67°46' E 015°35'1 3.4
2017-Dec-12 23:22N 67°46' E 015°34'411.1
2017-Dec-12 22:59N 67°46' E 015°23'511.3
2017-Dec-12 22:30N 67°42' E 015°11'611.3
2017-Dec-12 22:00N 67°40' E 014°58'510.6
2017-Dec-12 21:30N 67°39' E 014°44'510.0
2017-Dec-12 21:00N 67°42' E 014°35'5 9.9
2017-Dec-12 20:30N 67°47' E 014°32'511.0
2017-Dec-12 20:00N 67°51' E 014°41'611.5
2017-Dec-12 19:30N 67°54' E 014°55'511.0
2017-Dec-12 19:00N 67°54' E 015°09'611.2
2017-Dec-12 18:29N 67°56' E 015°24'2 5.1
2017-Dec-12 18:00N 67°56' E 015°30'0 0.0
2017-Dec-12 17:30N 67°56' E 015°30'0 0.0
2017-Dec-12 17:00N 67°56' E 015°30'3 5.2
2017-Dec-12 16:30N 67°58' E 015°36'5 9.4
2017-Dec-12 16:00N 67°58' E 015°48'0 0.0
2017-Dec-12 15:30N 67°58' E 015°48'1 1.1
2017-Dec-12 14:59N 67°58' E 015°47'510.9
2017-Dec-12 14:30N 67°58' E 015°33'5 9.5
2017-Dec-12 14:00N 67°58' E 015°21'510.8
2017-Dec-12 13:30N 68°04' E 015°16'510.6
2017-Dec-12 12:59N 68°08' E 015°22'611.2
2017-Dec-12 12:30N 68°12' E 015°33'611.0
2017-Dec-12 12:00N 68°16' E 015°45'511.0
2017-Dec-12 11:30N 68°19' E 015°56'611.1
2017-Dec-12 11:00N 68°22' E 016°08'611.3
2017-Dec-12 10:30N 68°24' E 016°23'611.2
2017-Dec-12 10:00N 68°26' E 016°38'611.2
2017-Dec-12 09:30N 68°26' E 016°53'611.3
2017-Dec-12 09:00N 68°26' E 017°08'611.1
2017-Dec-12 08:30N 68°26' E 017°23'1 2.2
2017-Dec-12 08:00N 68°25' E 017°26'4 8.1
2017-Dec-12 07:30N 68°26' E 017°15'510.9
2017-Dec-12 07:00N 68°24' E 017°01'4 7.6
2017-Dec-12 06:30N 68°21' E 016°54'3 6.6
2017-Dec-12 06:00N 68°24' E 016°54'510.9
2017-Dec-12 05:30N 68°26' E 016°40'611.0
2017-Dec-12 05:00N 68°25' E 016°25'611.1
2017-Dec-12 04:30N 68°23' E 016°10'4 7.7
2017-Dec-12 04:01N 68°26' E 016°04'510.6
2017-Dec-12 03:30N 68°31' E 016°10'510.4
2017-Dec-12 03:00N 68°34' E 016°23'4 8.5
2017-Dec-12 02:30N 68°35' E 016°34'2 4.0
2017-Dec-12 02:00N 68°37' E 016°34'610.9
2017-Dec-12 01:30N 68°42' E 016°41'510.5
2017-Dec-12 01:00N 68°47' E 016°43'510.8
2017-Dec-12 00:30N 68°53' E 016°45'4 7.3
2017-Dec-12 00:00N 68°56' E 016°43'0 0.0
2017-Dec-11 23:30N 68°56' E 016°43'4 9.0
2017-Dec-11 23:00N 68°58' E 016°54'510.5
2017-Dec-11 22:30N 68°59' E 017°08'510.0
2017-Dec-11 22:00N 69°02' E 017°19'510.4
2017-Dec-11 21:30N 69°06' E 017°29'510.8
2017-Dec-11 21:00N 69°08' E 017°43'510.8
2017-Dec-11 20:30N 69°10' E 017°57'4 8.6
2017-Dec-11 20:00N 69°15' E 017°58'510.1
2017-Dec-11 19:30N 69°20' E 018°01'5 9.7
2017-Dec-11 19:00N 69°24' E 018°07'510.1
2017-Dec-11 18:29N 69°29' E 018°10'510.7
2017-Dec-11 18:00N 69°31' E 018°24'510.3
2017-Dec-11 17:29N 69°33' E 018°38'4 8.7
2017-Dec-11 17:00N 69°34' E 018°49'510.2
2017-Dec-11 16:30N 69°29' E 018°56'510.7
2017-Dec-11 16:00N 69°25' E 019°02'510.0
2017-Dec-11 15:30N 69°21' E 019°13'5 9.7
2017-Dec-11 15:00N 69°18' E 019°22'4 7.1
2017-Dec-11 14:30N 69°14' E 019°22'0 0.1
2017-Dec-11 14:00N 69°14' E 019°22'0 0.0
2017-Dec-11 13:29N 69°14' E 019°22'0 0.0
2017-Dec-11 13:00N 69°14' E 019°22'0 0.0
2017-Dec-11 12:30N 69°14' E 019°22'0 0.0
2017-Dec-11 12:00N 69°14' E 019°22'0 0.0
2017-Dec-11 11:29N 69°14' E 019°22'0 0.0
2017-Dec-11 11:00N 69°14' E 019°22'3 7.0
2017-Dec-11 10:30N 69°18' E 019°22'5 9.8
2017-Dec-11 10:00N 69°21' E 019°13'510.6
2017-Dec-11 09:30N 69°25' E 019°01'510.8
2017-Dec-11 09:00N 69°30' E 018°56'611.2
2017-Dec-11 08:30N 69°36' E 018°55'611.3
2017-Dec-11 08:00N 69°41' E 019°01'611.0
2017-Dec-11 07:29N 69°46' E 019°10'511.2
2017-Dec-11 07:01N 69°48' E 019°23'611.3
2017-Dec-11 06:30N 69°50' E 019°39'610.9
2017-Dec-11 06:00N 69°53' E 019°52'511.1
2017-Dec-11 05:31N 69°56' E 020°05'510.8
2017-Dec-11 05:00N 69°60' E 020°18'611.1
2017-Dec-11 04:30N 70°01' E 020°34'510.8
2017-Dec-11 04:00N 70°03' E 020°49'610.7
2017-Dec-11 03:29N 70°07' E 020°59'511.3
2017-Dec-11 03:00N 70°12' E 021°06'510.8
2017-Dec-11 02:30N 70°16' E 021°17'611.2
2017-Dec-11 02:00N 70°20' E 021°29'611.3
2017-Dec-11 01:30N 70°24' E 021°41'611.1
2017-Dec-11 01:00N 70°22' E 021°57'611.2
2017-Dec-11 00:30N 70°19' E 022°11'510.5
2017-Dec-11 00:00N 70°15' E 022°20'0 0.9
2017-Dec-10 23:30N 70°14' E 022°21'0 0.0
2017-Dec-10 23:00N 70°14' E 022°21'0 0.0
2017-Dec-10 22:30N 70°14' E 022°21'0 0.0
2017-Dec-10 22:00N 70°14' E 022°21'0 0.0
2017-Dec-10 21:29N 70°14' E 022°21'2 4.5
2017-Dec-10 21:00N 70°16' E 022°19'611.1
2017-Dec-10 20:30N 70°20' E 022°06'611.6
2017-Dec-10 20:00N 70°22' E 021°50'5 9.3
2017-Dec-10 19:30N 70°22' E 021°36'612.2
2017-Dec-10 19:00N 70°18' E 021°24'611.9
2017-Dec-10 18:30N 70°14' E 021°10'612.2
2017-Dec-10 18:00N 70°08' E 021°06'612.0
2017-Dec-10 17:30N 70°02' E 021°01'2 4.2
2017-Dec-10 17:00N 70°04' E 020°57'612.4
2017-Dec-10 16:30N 70°02' E 020°39'611.7
2017-Dec-10 16:00N 69°60' E 020°23'611.7
2017-Dec-10 15:30N 69°57' E 020°08'612.0
2017-Dec-10 15:00N 69°54' E 019°54'611.8
2017-Dec-10 14:30N 69°50' E 019°39'611.8
2017-Dec-10 14:00N 69°48' E 019°24'612.0
2017-Dec-10 13:30N 69°45' E 019°08'611.6
2017-Dec-10 13:00N 69°40' E 018°59'0 0.3
2017-Dec-10 12:30N 69°41' E 018°59'1 2.2
2017-Dec-10 12:00N 69°40' E 018°58'0 0.7
2017-Dec-10 11:30N 69°39' E 018°59'611.8
2017-Dec-10 11:00N 69°34' E 018°49'510.5
2017-Dec-10 10:30N 69°32' E 018°35'611.1
2017-Dec-10 10:00N 69°30' E 018°20'510.8
2017-Dec-10 09:30N 69°27' E 018°07'611.5
2017-Dec-10 09:00N 69°22' E 018°06'510.9
2017-Dec-10 08:31N 69°17' E 017°58'3 6.1
2017-Dec-10 08:00N 69°14' E 017°58'3 6.2
2017-Dec-10 07:30N 69°11' E 018°01'611.2
2017-Dec-10 07:00N 69°08' E 017°47'611.6
2017-Dec-10 06:30N 69°06' E 017°32'611.0
2017-Dec-10 06:00N 69°03' E 017°20'611.3
2017-Dec-10 05:30N 68°58' E 017°11'611.4
2017-Dec-10 05:00N 68°54' E 016°59'611.6
2017-Dec-10 04:30N 68°51' E 016°47'510.9
2017-Dec-10 04:00N 68°47' E 016°36'1 2.6
2017-Dec-10 03:30N 68°48' E 016°33'1 2.5
2017-Dec-10 03:00N 68°49' E 016°34'4 9.0
2017-Dec-10 02:30N 68°52' E 016°28'611.4
2017-Dec-10 02:00N 68°56' E 016°15'611.2
2017-Dec-10 01:30N 68°58' E 016°01'510.7
2017-Dec-10 01:00N 68°59' E 015°46'510.0
2017-Dec-10 00:30N 68°56' E 015°35'611.4
2017-Dec-10 00:00N 68°50' E 015°28'611.5
2017-Dec-09 23:29N 68°45' E 015°26'3 5.6
2017-Dec-09 23:00N 68°42' E 015°25'3 5.4
2017-Dec-09 22:30N 68°39' E 015°23'611.5
2017-Dec-09 22:00N 68°35' E 015°13'510.7
2017-Dec-09 21:30N 68°30' E 015°11'510.1
2017-Dec-09 21:00N 68°25' E 015°08'510.7
2017-Dec-09 20:30N 68°20' E 015°01'510.7
2017-Dec-09 20:00N 68°15' E 014°56'4 8.4
2017-Dec-09 19:30N 68°14' E 014°45'4 8.1
2017-Dec-09 19:00N 68°14' E 014°34'0 0.9
2017-Dec-09 18:30N 68°14' E 014°34'5 9.9
2017-Dec-09 18:00N 68°11' E 014°23'510.5
2017-Dec-09 17:30N 68°08' E 014°11'510.5
2017-Dec-09 17:00N 68°06' E 013°58'510.3
2017-Dec-09 16:30N 68°04' E 013°45'4 7.7
2017-Dec-09 15:59N 68°06' E 013°36'2 3.3
2017-Dec-09 15:30N 68°08' E 013°34'1 1.9
2017-Dec-09 15:00N 68°08' E 013°37'0 0.9
2017-Dec-09 14:29N 68°08' E 013°36'511.1
2017-Dec-09 14:00N 68°02' E 013°39'511.3
2017-Dec-09 13:30N 67°57' E 013°45'611.4
2017-Dec-09 13:00N 67°52' E 013°52'611.2
2017-Dec-09 12:30N 67°47' E 013°59'511.2
2017-Dec-09 12:00N 67°42' E 014°05'611.1
2017-Dec-09 11:30N 67°37' E 014°12'611.3
2017-Dec-09 11:00N 67°32' E 014°18'611.5
2017-Dec-09 10:30N 67°27' E 014°25'510.6
2017-Dec-09 10:00N 67°22' E 014°24'4 8.7
2017-Dec-09 09:30N 67°17' E 014°23'0 0.5
2017-Dec-09 09:00N 67°17' E 014°23'1 2.3
2017-Dec-09 08:30N 67°16' E 014°21'2 3.6
2017-Dec-09 08:00N 67°15' E 014°17'510.9
2017-Dec-09 07:30N 67°12' E 014°07'611.3
2017-Dec-09 07:00N 67°06' E 014°01'2 4.6
2017-Dec-09 06:30N 67°04' E 014°04'0 0.0
2017-Dec-09 06:00N 67°04' E 014°04'0 0.0
2017-Dec-09 05:30N 67°04' E 014°04'4 8.1
2017-Dec-09 05:01N 67°03' E 013°55'611.4
2017-Dec-09 04:30N 66°59' E 013°43'611.1
2017-Dec-09 04:00N 66°57' E 013°29'611.2
2017-Dec-09 03:30N 66°52' E 013°33'5 9.6
2017-Dec-09 03:00N 66°47' E 013°29'3 5.3
2017-Dec-09 02:30N 66°45' E 013°30'0 0.0
2017-Dec-09 02:00N 66°45' E 013°30'0 0.0
2017-Dec-09 01:30N 66°45' E 013°30'0 1.0
2017-Dec-09 01:00N 66°45' E 013°29'611.2
2017-Dec-09 00:30N 66°44' E 013°15'511.1
2017-Dec-09 00:00N 66°39' E 013°07'611.2
2017-Dec-08 23:30N 66°34' E 013°05'5 9.9
2017-Dec-08 23:00N 66°30' E 012°59'611.6
2017-Dec-08 22:30N 66°24' E 012°59'611.3
2017-Dec-08 22:00N 66°18' E 012°57'611.8
2017-Dec-08 21:30N 66°12' E 012°52'510.9
2017-Dec-08 21:00N 66°08' E 012°46'611.4
2017-Dec-08 20:30N 66°03' E 012°38'1 3.0
2017-Dec-08 20:00N 66°02' E 012°36'611.0
2017-Dec-08 19:30N 66°01' E 012°22'1 1.2
2017-Dec-08 19:00N 66°01' E 012°21'4 7.4
2017-Dec-08 18:30N 65°58' E 012°26'611.7
2017-Dec-08 18:00N 65°52' E 012°22'611.6
2017-Dec-08 17:30N 65°47' E 012°19'611.5
2017-Dec-08 17:00N 65°41' E 012°16'611.6
2017-Dec-08 16:30N 65°35' E 012°14'611.4
2017-Dec-08 16:00N 65°30' E 012°12'5 9.5
2017-Dec-08 15:30N 65°25' E 012°09'611.5
2017-Dec-08 15:00N 65°20' E 012°02'611.7
2017-Dec-08 14:30N 65°15' E 011°56'611.7
2017-Dec-08 14:00N 65°09' E 011°50'611.4
2017-Dec-08 13:30N 65°04' E 011°46'611.5
2017-Dec-08 13:00N 64°60' E 011°37'611.3
2017-Dec-08 12:31N 64°56' E 011°27'612.0
2017-Dec-08 12:01N 64°52' E 011°17'1 1.0
2017-Dec-08 11:30N 64°52' E 011°17'0 0.0
2017-Dec-08 11:00N 64°52' E 011°17'0 0.0
2017-Dec-08 10:31N 64°52' E 011°17'0 0.0
2017-Dec-08 10:00N 64°52' E 011°17'0 0.0
2017-Dec-08 09:30N 64°52' E 011°17'0 0.0
2017-Dec-08 09:00N 64°52' E 011°17'0 0.0
2017-Dec-08 08:30N 64°52' E 011°17'0 0.0
2017-Dec-08 08:00N 64°52' E 011°17'0 0.0
2017-Dec-08 07:30N 64°52' E 011°17'0 0.0
2017-Dec-08 07:00N 64°52' E 011°17'0 0.0
2017-Dec-08 06:30N 64°52' E 011°17'0 0.0
2017-Dec-08 06:01N 64°52' E 011°17'0 0.0
2017-Dec-08 05:31N 64°52' E 011°17'0 0.0
2017-Dec-08 05:00N 64°52' E 011°17'1 2.0
2017-Dec-08 04:30N 64°51' E 011°15'4 8.8
2017-Dec-08 04:00N 64°48' E 011°07'4 8.3
2017-Dec-08 03:30N 64°44' E 011°07'5 9.1
2017-Dec-08 03:00N 64°40' E 011°08'4 8.6
2017-Dec-08 02:30N 64°37' E 011°15'5 9.2
2017-Dec-08 02:00N 64°33' E 011°22'4 7.4
2017-Dec-08 01:30N 64°30' E 011°26'3 6.2
2017-Dec-08 01:00N 64°27' E 011°29'0 1.0
2017-Dec-08 00:30N 64°28' E 011°30'0 0.0
2017-Dec-08 00:00N 64°28' E 011°30'0 0.0
2017-Dec-07 23:30N 64°28' E 011°30'0 0.0
2017-Dec-07 23:00N 64°28' E 011°30'0 0.0
2017-Dec-07 22:30N 64°28' E 011°30'0 0.0
2017-Dec-07 21:59N 64°28' E 011°30'0 0.0
2017-Dec-07 21:30N 64°28' E 011°30'0 0.0
2017-Dec-07 21:00N 64°28' E 011°30'0 0.0
2017-Dec-07 20:30N 64°28' E 011°30'0 0.0
2017-Dec-07 20:00N 64°28' E 011°30'0 0.9
2017-Dec-07 19:30N 64°28' E 011°30'2 3.3
2017-Dec-07 19:00N 64°27' E 011°26'510.3
2017-Dec-07 18:30N 64°32' E 011°25'510.4
2017-Dec-07 18:00N 64°36' E 011°17'5 9.9
2017-Dec-07 17:30N 64°39' E 011°08'611.0
2017-Dec-07 17:00N 64°45' E 011°06'510.0
2017-Dec-07 16:30N 64°50' E 011°10'3 5.8
2017-Dec-07 16:01N 64°52' E 011°15'0 0.0
2017-Dec-07 15:30N 64°52' E 011°15'0 0.0
2017-Dec-07 15:00N 64°52' E 011°15'0 0.9
2017-Dec-07 14:31N 64°52' E 011°16'1 1.2
2017-Dec-07 14:00N 64°52' E 011°17'0 0.0
2017-Dec-07 13:31N 64°52' E 011°17'0 0.0
2017-Dec-07 13:00N 64°52' E 011°17'0 0.0
2017-Dec-07 12:31N 64°52' E 011°17'0 0.0
2017-Dec-07 12:00N 64°52' E 011°17'0 0.0
2017-Dec-07 11:30N 64°52' E 011°17'0 0.0
2017-Dec-07 11:00N 64°52' E 011°17'2 4.9
2017-Dec-07 10:30N 64°54' E 011°20'611.0
2017-Dec-07 10:00N 64°57' E 011°30'510.9
2017-Dec-07 09:31N 65°01' E 011°40'510.8
2017-Dec-07 09:00N 65°05' E 011°47'510.4
2017-Dec-07 08:30N 65°10' E 011°51'611.0
2017-Dec-07 08:00N 65°15' E 011°55'511.2
2017-Dec-07 07:30N 65°20' E 012°02'611.4
2017-Dec-07 07:00N 65°25' E 012°09'5 9.6
2017-Dec-07 06:30N 65°30' E 012°12'511.0
2017-Dec-07 06:00N 65°35' E 012°13'611.0
2017-Dec-07 05:30N 65°41' E 012°15'611.5
2017-Dec-07 05:00N 65°46' E 012°19'611.3
2017-Dec-07 04:30N 65°52' E 012°22'610.9
2017-Dec-07 04:00N 65°57' E 012°26'611.6
2017-Dec-07 03:30N 66°02' E 012°34'611.4
2017-Dec-07 03:00N 66°06' E 012°43'611.2
2017-Dec-07 02:29N 66°11' E 012°51'611.3
2017-Dec-07 02:00N 66°16' E 012°55'611.2
2017-Dec-07 01:30N 66°22' E 012°57'511.1
2017-Dec-07 01:00N 66°27' E 012°59'510.7
2017-Dec-07 00:30N 66°32' E 012°59'510.1
2017-Dec-07 00:00N 66°37' E 013°04'611.4
2017-Dec-06 23:30N 66°42' E 013°10'611.3
2017-Dec-06 23:00N 66°48' E 013°15'510.7
2017-Dec-06 22:30N 66°52' E 013°21'510.3
2017-Dec-06 22:00N 66°57' E 013°29'510.4
2017-Dec-06 21:30N 66°60' E 013°39'611.7
2017-Dec-06 21:00N 67°03' E 013°51'  

Dump ship's entire track history